createdAt,value
2018-10-01T00:00:10.965Z,6.39
2018-10-01T00:01:10.751Z,6.34
2018-10-01T00:02:10.729Z,6.37
2018-10-01T00:03:10.685Z,6.37
2018-10-01T00:04:10.650Z,6.34
2018-10-01T00:05:10.670Z,6.37
2018-10-01T00:06:11.412Z,6.40
2018-10-01T00:07:10.560Z,6.39
2018-10-01T00:08:10.526Z,6.37
2018-10-01T00:09:11.411Z,6.37
2018-10-01T00:10:10.967Z,6.43
2018-10-01T00:11:11.411Z,6.40
2018-10-01T00:12:10.446Z,6.49
2018-10-01T00:13:10.415Z,6.49
2018-10-01T00:14:10.337Z,6.34
2018-10-01T00:15:10.306Z,6.39
2018-10-01T00:16:10.272Z,6.37
2018-10-01T00:17:10.298Z,6.46
2018-10-01T00:18:10.245Z,6.42
2018-10-01T00:19:10.915Z,6.40
2018-10-01T00:20:10.147Z,6.40
2018-10-01T00:21:10.114Z,6.42
2018-10-01T00:22:10.137Z,6.47
2018-10-01T00:23:10.051Z,6.42
2018-10-01T00:24:11.023Z,6.47
2018-10-01T00:25:10.924Z,6.49
2018-10-01T00:26:09.959Z,6.43
2018-10-01T00:27:10.469Z,6.42
2018-10-01T00:28:09.938Z,6.39
2018-10-01T00:29:10.418Z,6.36
2018-10-01T00:30:09.837Z,6.40
2018-10-01T00:31:10.416Z,6.36
2018-10-01T00:32:09.831Z,6.37
2018-10-01T00:33:10.414Z,6.31
2018-10-01T00:34:10.417Z,6.29
2018-10-01T00:35:10.418Z,6.26
2018-10-01T00:36:09.641Z,6.14
2018-10-01T00:37:09.662Z,6.15
2018-10-01T00:38:09.573Z,6.15
2018-10-01T00:39:10.413Z,6.14
2018-10-01T00:40:10.430Z,6.09
2018-10-01T00:41:10.430Z,6.25
2018-10-01T00:42:09.490Z,6.15
2018-10-01T00:43:09.919Z,6.15
2018-10-01T00:44:09.386Z,6.18
2018-10-01T00:45:09.349Z,6.24
2018-10-01T00:46:09.317Z,6.31
2018-10-01T00:47:09.331Z,6.15
2018-10-01T00:48:09.923Z,6.24
2018-10-01T00:49:09.221Z,6.14
2018-10-01T00:50:09.470Z,6.17
2018-10-01T00:51:09.918Z,6.13
2018-10-01T00:52:09.169Z,6.21
2018-10-01T00:53:09.918Z,6.20
2018-10-01T00:54:09.922Z,6.18
2018-10-01T00:55:09.477Z,6.10
2018-10-01T00:56:09.930Z,6.15
2018-10-01T00:57:09.478Z,6.07
2018-10-01T00:58:09.916Z,6.17
2018-10-01T00:59:09.416Z,6.18
2018-10-01T01:00:08.876Z,6.17
2018-10-01T01:01:09.824Z,6.10
2018-10-01T01:02:08.863Z,6.10
2018-10-01T01:03:09.421Z,6.14
2018-10-01T01:04:08.743Z,6.17
2018-10-01T01:05:08.709Z,6.13
2018-10-01T01:06:09.423Z,6.07
2018-10-01T01:07:08.980Z,6.00
2018-10-01T01:08:08.658Z,5.98
2018-10-01T01:09:08.586Z,5.81
2018-10-01T01:10:09.419Z,5.89
2018-10-01T01:11:09.417Z,5.78
2018-10-01T01:12:08.972Z,5.80
2018-10-01T01:13:08.453Z,5.78
2018-10-01T01:14:09.416Z,5.75
2018-10-01T01:15:08.918Z,5.75
2018-10-01T01:16:08.361Z,5.72
2018-10-01T01:17:08.372Z,5.73
2018-10-01T01:18:08.920Z,5.63
2018-10-01T01:19:08.918Z,5.60
2018-10-01T01:20:08.237Z,5.52
2018-10-01T01:21:08.204Z,5.54
2018-10-01T01:22:08.479Z,5.51
2018-10-01T01:23:08.145Z,5.49
2018-10-01T01:24:08.104Z,5.57
2018-10-01T01:25:08.067Z,5.52
2018-10-01T01:26:08.976Z,5.41
2018-10-01T01:27:08.922Z,5.37
2018-10-01T01:28:08.477Z,5.36
2018-10-01T01:29:08.922Z,5.33
2018-10-01T01:30:08.422Z,5.28
2018-10-01T01:31:08.434Z,5.21
2018-10-01T01:32:07.850Z,5.23
2018-10-01T01:33:07.858Z,5.13
2018-10-01T01:34:07.782Z,5.09
2018-10-01T01:35:07.744Z,5.15
2018-10-01T01:36:08.485Z,5.16
2018-10-01T01:37:07.679Z,5.05
2018-10-01T01:38:07.691Z,5.00
2018-10-01T01:39:08.422Z,5.06
2018-10-01T01:40:07.632Z,5.09
2018-10-01T01:41:07.551Z,5.03
2018-10-01T01:42:07.524Z,4.97
2018-10-01T01:43:07.483Z,4.94
2018-10-01T01:44:07.489Z,4.95
2018-10-01T01:45:07.463Z,4.87
2018-10-01T01:46:07.390Z,4.87
2018-10-01T01:47:07.356Z,4.87
2018-10-01T01:48:07.319Z,4.83
2018-10-01T01:49:07.330Z,4.85
2018-10-01T01:50:07.927Z,4.79
2018-10-01T01:51:07.227Z,4.72
2018-10-01T01:52:07.933Z,4.78
2018-10-01T01:53:07.922Z,4.72
2018-10-01T01:54:07.489Z,4.78
2018-10-01T01:55:08.082Z,4.76
2018-10-01T01:56:07.474Z,4.75
2018-10-01T01:57:07.928Z,4.65
2018-10-01T01:58:07.923Z,4.78
2018-10-01T01:59:06.972Z,4.71
2018-10-01T02:00:06.977Z,4.78
2018-10-01T02:01:07.425Z,4.72
2018-10-01T02:02:06.865Z,4.68
2018-10-01T02:03:07.427Z,4.66
2018-10-01T02:04:06.801Z,4.69
2018-10-01T02:05:07.005Z,4.61
2018-10-01T02:06:06.784Z,4.66
2018-10-01T02:07:07.423Z,4.75
2018-10-01T02:08:07.429Z,4.69
2018-10-01T02:09:07.427Z,4.71
2018-10-01T02:10:06.982Z,4.72
2018-10-01T02:11:06.612Z,4.74
2018-10-01T02:12:06.544Z,4.79
2018-10-01T02:13:06.505Z,4.72
2018-10-01T02:14:07.427Z,4.79
2018-10-01T02:15:06.441Z,4.78
2018-10-01T02:16:06.446Z,4.87
2018-10-01T02:17:06.371Z,4.91
2018-10-01T02:18:06.923Z,4.94
2018-10-01T02:19:06.307Z,4.87
2018-10-01T02:20:06.289Z,4.97
2018-10-01T02:21:06.480Z,4.95
2018-10-01T02:22:06.207Z,5.09
2018-10-01T02:23:06.924Z,5.09
2018-10-01T02:24:06.928Z,5.12
2018-10-01T02:25:06.922Z,5.10
2018-10-01T02:26:06.480Z,5.03
2018-10-01T02:27:06.041Z,5.09
2018-10-01T02:28:06.925Z,4.98
2018-10-01T02:29:06.925Z,5.02
2018-10-01T02:30:05.949Z,5.08
2018-10-01T02:31:05.953Z,5.16
2018-10-01T02:32:05.933Z,5.20
2018-10-01T02:33:06.426Z,5.23
2018-10-01T02:34:06.432Z,5.21
2018-10-01T02:35:05.786Z,5.15
2018-10-01T02:36:05.755Z,5.20
2018-10-01T02:37:05.825Z,5.21
2018-10-01T02:38:07.333Z,5.21
2018-10-01T02:39:05.655Z,5.33
2018-10-01T02:40:06.429Z,5.24
2018-10-01T02:41:06.425Z,5.28
2018-10-01T02:42:05.994Z,5.30
2018-10-01T02:43:05.522Z,5.21
2018-10-01T02:44:05.486Z,5.20
2018-10-01T02:45:06.431Z,5.20
2018-10-01T02:46:05.926Z,5.16
2018-10-01T02:47:05.425Z,5.18
2018-10-01T02:48:05.354Z,5.26
2018-10-01T02:49:05.328Z,5.10
2018-10-01T02:50:05.925Z,5.13
2018-10-01T02:51:05.933Z,5.15
2018-10-01T02:52:05.479Z,5.06
2018-10-01T02:53:05.932Z,5.16
2018-10-01T02:54:05.161Z,5.12
2018-10-01T02:55:05.932Z,5.06
2018-10-01T02:56:05.094Z,5.05
2018-10-01T02:57:05.121Z,5.16
2018-10-01T02:58:05.031Z,5.00
2018-10-01T02:59:05.932Z,5.13
2018-10-01T03:00:05.927Z,5.02
2018-10-01T03:01:05.427Z,5.02
2018-10-01T03:02:04.955Z,4.94
2018-10-01T03:03:04.865Z,4.91
2018-10-01T03:04:05.430Z,4.84
2018-10-01T03:05:05.429Z,4.87
2018-10-01T03:06:04.767Z,4.88
2018-10-01T03:07:04.781Z,4.88
2018-10-01T03:08:05.427Z,4.72
2018-10-01T03:09:04.669Z,4.79
2018-10-01T03:10:04.637Z,4.66
2018-10-01T03:11:05.429Z,4.71
2018-10-01T03:12:04.678Z,4.71
2018-10-01T03:13:04.536Z,4.66
2018-10-01T03:14:05.427Z,4.61
2018-10-01T03:15:05.447Z,4.57
2018-10-01T03:16:05.434Z,4.58
2018-10-01T03:17:04.452Z,4.57
2018-10-01T03:18:04.373Z,4.57
2018-10-01T03:19:04.929Z,4.58
2018-10-01T03:20:04.361Z,4.61
2018-10-01T03:21:04.280Z,4.56
2018-10-01T03:22:04.938Z,4.42
2018-10-01T03:23:04.929Z,4.48
2018-10-01T03:24:04.928Z,4.46
2018-10-01T03:25:04.485Z,4.47
2018-10-01T03:26:04.112Z,4.42
2018-10-01T03:27:04.087Z,4.47
2018-10-01T03:28:04.938Z,4.47
2018-10-01T03:29:04.060Z,4.44
2018-10-01T03:30:04.934Z,4.40
2018-10-01T03:31:03.991Z,4.39
2018-10-01T03:32:03.958Z,4.40
2018-10-01T03:33:04.439Z,4.30
2018-10-01T03:34:03.854Z,4.36
2018-10-01T03:35:04.338Z,4.30
2018-10-01T03:36:03.782Z,4.33
2018-10-01T03:37:03.789Z,4.29
2018-10-01T03:38:03.760Z,4.33
2018-10-01T03:39:04.441Z,4.28
2018-10-01T03:40:03.696Z,4.29
2018-10-01T03:41:04.431Z,4.29
2018-10-01T03:42:03.581Z,4.26
2018-10-01T03:43:03.984Z,4.20
2018-10-01T03:44:04.434Z,4.26
2018-10-01T03:45:04.444Z,4.17
2018-10-01T03:46:04.455Z,4.30
2018-10-01T03:47:03.416Z,4.15
2018-10-01T03:48:03.427Z,4.10
2018-10-01T03:49:03.935Z,4.20
2018-10-01T03:50:03.375Z,4.33
2018-10-01T03:51:03.497Z,4.38
2018-10-01T03:52:03.936Z,4.39
2018-10-01T03:53:03.491Z,4.36
2018-10-01T03:54:03.191Z,4.29
2018-10-01T03:55:03.934Z,4.26
2018-10-01T03:56:03.486Z,4.26
2018-10-01T03:57:03.087Z,4.30
2018-10-01T03:58:03.051Z,4.28
2018-10-01T03:59:03.489Z,4.12
2018-10-01T04:00:03.932Z,4.18
2018-10-01T04:01:03.959Z,4.12
2018-10-01T04:02:02.922Z,4.12
2018-10-01T04:03:03.019Z,4.04
2018-10-01T04:04:03.435Z,4.02
2018-10-01T04:05:02.833Z,4.14
2018-10-01T04:06:02.792Z,4.07
2018-10-01T04:07:02.752Z,4.04
2018-10-01T04:08:02.768Z,3.92
2018-10-01T04:09:02.757Z,3.94
2018-10-01T04:10:02.656Z,3.97
2018-10-01T04:11:02.667Z,3.89
2018-10-01T04:12:03.438Z,3.84
2018-10-01T04:13:02.553Z,3.82
2018-10-01T04:14:03.434Z,3.85
2018-10-01T04:15:02.991Z,3.81
2018-10-01T04:16:02.457Z,3.78
2018-10-01T04:17:02.464Z,3.75
2018-10-01T04:18:02.936Z,3.89
2018-10-01T04:19:02.356Z,3.76
2018-10-01T04:20:02.489Z,3.74
2018-10-01T04:21:02.933Z,3.75
2018-10-01T04:22:02.315Z,3.75
2018-10-01T04:23:02.237Z,3.71
2018-10-01T04:24:02.189Z,3.72
2018-10-01T04:25:02.158Z,3.74
2018-10-01T04:26:02.168Z,3.72
2018-10-01T04:27:02.086Z,3.69
2018-10-01T04:28:02.057Z,3.58
2018-10-01T04:29:02.025Z,3.57
2018-10-01T04:30:01.989Z,3.58
2018-10-01T04:31:02.014Z,3.58
2018-10-01T04:32:01.980Z,3.72
2018-10-01T04:33:01.937Z,3.66
2018-10-01T04:34:02.436Z,3.60
2018-10-01T04:35:01.829Z,3.66
2018-10-01T04:36:01.876Z,3.61
2018-10-01T04:37:01.754Z,3.56
2018-10-01T04:38:01.768Z,3.43
2018-10-01T04:39:01.692Z,3.49
2018-10-01T04:40:01.653Z,3.51
2018-10-01T04:41:01.672Z,3.56
2018-10-01T04:42:02.436Z,3.53
2018-10-01T04:43:02.435Z,3.54
2018-10-01T04:44:01.548Z,3.53
2018-10-01T04:45:01.535Z,3.51
2018-10-01T04:46:01.465Z,3.45
2018-10-01T04:47:01.424Z,3.54
2018-10-01T04:48:01.395Z,3.40
2018-10-01T04:49:01.398Z,3.42
2018-10-01T04:50:01.319Z,3.53
2018-10-01T04:51:01.305Z,3.45
2018-10-01T04:52:01.261Z,3.40
2018-10-01T04:53:01.239Z,3.42
2018-10-01T04:54:01.229Z,3.49
2018-10-01T04:55:01.493Z,3.49
2018-10-01T04:56:01.120Z,3.51
2018-10-01T04:57:01.087Z,3.45
2018-10-01T04:58:01.129Z,3.53
2018-10-01T04:59:01.020Z,3.49
2018-10-01T05:00:00.984Z,3.42
2018-10-01T05:01:01.938Z,3.53
2018-10-01T05:02:00.923Z,3.42
2018-10-01T05:03:00.933Z,3.48
2018-10-01T05:04:00.899Z,3.49
2018-10-01T05:05:00.872Z,3.45
2018-10-01T05:06:00.815Z,3.46
2018-10-01T05:07:00.752Z,3.39
2018-10-01T05:08:00.723Z,3.48
2018-10-01T05:09:00.684Z,3.45
2018-10-01T05:10:00.696Z,3.40
2018-10-01T05:11:00.616Z,3.32
2018-10-01T05:12:00.584Z,3.46
2018-10-01T05:13:00.593Z,3.37
2018-10-01T05:14:00.522Z,3.43
2018-10-01T05:15:00.482Z,3.37
2018-10-01T05:16:00.517Z,3.45
2018-10-01T05:17:00.413Z,3.46
2018-10-01T05:18:00.424Z,3.43
2018-10-01T05:19:00.347Z,3.40
2018-10-01T05:20:00.312Z,3.49
2018-10-01T05:21:00.497Z,3.49
2018-10-01T05:22:00.247Z,3.54
2018-10-01T05:23:00.214Z,3.57
2018-10-01T05:24:00.938Z,3.61
2018-10-01T05:25:00.147Z,3.69
2018-10-01T05:26:00.158Z,3.67
2018-10-01T05:27:00.106Z,3.60
2018-10-01T05:28:00.946Z,3.61
2018-10-01T05:29:00.494Z,3.58
2018-10-01T05:29:59.978Z,3.60
2018-10-01T05:30:59.947Z,3.51
2018-10-01T05:31:59.964Z,3.63
2018-10-01T05:33:00.439Z,3.58
2018-10-01T05:33:59.849Z,3.58
2018-10-01T05:34:59.833Z,3.56
2018-10-01T05:36:00.441Z,3.53
2018-10-01T05:36:59.787Z,3.56
2018-10-01T05:37:59.772Z,3.61
2018-10-01T05:38:59.719Z,3.60
2018-10-01T05:39:59.643Z,3.67
2018-10-01T05:40:59.616Z,3.78
2018-10-01T05:41:59.630Z,3.67
2018-10-01T05:42:59.546Z,3.69
2018-10-01T05:43:59.513Z,3.76
2018-10-01T05:45:00.470Z,3.79
2018-10-01T05:45:59.442Z,3.76
2018-10-01T05:46:59.454Z,3.85
2018-10-01T05:47:59.423Z,3.78
2018-10-01T05:48:59.413Z,3.86
2018-10-01T05:49:59.316Z,3.93
2018-10-01T05:50:59.278Z,3.92
2018-10-01T05:51:59.240Z,3.99
2018-10-01T05:52:59.249Z,4.04
2018-10-01T05:53:59.208Z,4.10
2018-10-01T05:54:59.253Z,4.14
2018-10-01T05:55:59.131Z,4.04
2018-10-01T05:56:59.074Z,4.04
2018-10-01T05:57:59.090Z,4.11
2018-10-01T05:58:59.053Z,4.10
2018-10-01T05:59:59.024Z,4.12
2018-10-01T06:00:58.943Z,4.14
2018-10-01T06:01:58.909Z,4.17
2018-10-01T06:02:58.875Z,4.12
2018-10-01T06:03:58.992Z,4.12
2018-10-01T06:04:58.817Z,4.11
2018-10-01T06:05:58.776Z,4.10
2018-10-01T06:06:58.745Z,4.18
2018-10-01T06:07:58.996Z,4.22
2018-10-01T06:08:59.444Z,4.24
2018-10-01T06:09:58.661Z,4.26
2018-10-01T06:10:58.615Z,4.29
2018-10-01T06:11:58.634Z,4.28
2018-10-01T06:12:58.581Z,4.29
2018-10-01T06:13:58.556Z,4.38
2018-10-01T06:14:58.482Z,4.44
2018-10-01T06:15:58.445Z,4.39
2018-10-01T06:16:58.432Z,4.48
2018-10-01T06:17:58.385Z,4.51
2018-10-01T06:18:58.437Z,4.48
2018-10-01T06:19:58.315Z,4.65
2018-10-01T06:20:58.297Z,4.56
2018-10-01T06:21:58.245Z,4.64
2018-10-01T06:22:58.945Z,4.61
2018-10-01T06:23:58.241Z,4.60
2018-10-01T06:24:58.148Z,4.56
2018-10-01T06:25:58.114Z,4.60
2018-10-01T06:26:58.947Z,4.53
2018-10-01T06:27:58.050Z,4.69
2018-10-01T06:28:58.058Z,4.57
2018-10-01T06:29:57.982Z,4.60
2018-10-01T06:30:57.952Z,4.57
2018-10-01T06:31:57.968Z,4.69
2018-10-01T06:32:58.444Z,4.60
2018-10-01T06:33:57.893Z,4.68
2018-10-01T06:34:57.937Z,4.75
2018-10-01T06:35:57.835Z,4.78
2018-10-01T06:36:57.751Z,4.76
2018-10-01T06:37:57.744Z,4.83
2018-10-01T06:38:57.691Z,4.91
2018-10-01T06:39:57.658Z,4.94
2018-10-01T06:40:57.679Z,4.90
2018-10-01T06:41:57.645Z,4.91
2018-10-01T06:42:57.558Z,4.98
2018-10-01T06:43:57.536Z,4.95
2018-10-01T06:44:57.492Z,5.08
2018-10-01T06:45:57.625Z,5.18
2018-10-01T06:46:57.427Z,5.06
2018-10-01T06:47:57.392Z,5.31
2018-10-01T06:48:57.366Z,5.33
2018-10-01T06:49:57.328Z,5.36
2018-10-01T06:50:57.587Z,5.59
2018-10-01T06:51:57.268Z,5.62
2018-10-01T06:52:57.234Z,5.66
2018-10-01T06:53:57.209Z,5.73
2018-10-01T06:54:57.167Z,5.80
2018-10-01T06:55:57.177Z,5.78
2018-10-01T06:56:57.501Z,5.92
2018-10-01T06:57:57.987Z,6.03
2018-10-01T06:58:57.036Z,6.06
2018-10-01T06:59:57.060Z,6.09
2018-10-01T07:00:56.976Z,6.20
2018-10-01T07:01:56.946Z,6.37
2018-10-01T07:02:56.914Z,6.33
2018-10-01T07:03:56.879Z,6.40
2018-10-01T07:04:56.885Z,6.46
2018-10-01T07:05:56.925Z,6.55
2018-10-01T07:06:56.782Z,6.58
2018-10-01T07:07:56.752Z,6.67
2018-10-01T07:08:56.720Z,6.65
2018-10-01T07:09:56.737Z,6.70
2018-10-01T07:10:56.708Z,6.78
2018-10-01T07:11:57.450Z,6.82
2018-10-01T07:12:56.600Z,6.86
2018-10-01T07:13:57.451Z,6.94
2018-10-01T07:14:56.535Z,6.94
2018-10-01T07:15:57.504Z,7.04
2018-10-01T07:16:56.474Z,7.04
2018-10-01T07:17:56.478Z,7.16
2018-10-01T07:18:56.402Z,7.11
2018-10-01T07:19:56.371Z,7.16
2018-10-01T07:20:56.397Z,7.16
2018-10-01T07:21:56.310Z,7.19
2018-10-01T07:22:56.357Z,7.29
2018-10-01T07:23:56.242Z,7.29
2018-10-01T07:24:56.222Z,7.40
2018-10-01T07:25:56.255Z,7.40
2018-10-01T07:26:56.151Z,7.48
2018-10-01T07:27:56.118Z,7.48
2018-10-01T07:28:56.093Z,7.59
2018-10-01T07:29:56.508Z,7.59
2018-10-01T07:30:56.951Z,7.70
2018-10-01T07:31:55.991Z,7.67
2018-10-01T07:32:56.958Z,7.68
2018-10-01T07:33:55.931Z,7.74
2018-10-01T07:34:55.953Z,7.74
2018-10-01T07:35:55.881Z,7.80
2018-10-01T07:36:55.837Z,7.88
2018-10-01T07:37:55.810Z,7.92
2018-10-01T07:38:55.839Z,7.91
2018-10-01T07:39:55.800Z,8.03
2018-10-01T07:40:55.711Z,7.98
2018-10-01T07:41:55.690Z,7.96
2018-10-01T07:42:55.653Z,7.93
2018-10-01T07:43:55.621Z,8.01
2018-10-01T07:44:55.674Z,8.01
2018-10-01T07:45:55.558Z,8.14
2018-10-01T07:46:55.531Z,8.09
2018-10-01T07:47:55.500Z,8.13
2018-10-01T07:48:55.464Z,8.24
2018-10-01T07:49:55.479Z,8.24
2018-10-01T07:50:55.490Z,8.31
2018-10-01T07:51:55.420Z,8.32
2018-10-01T07:52:55.394Z,8.43
2018-10-01T07:53:55.315Z,8.52
2018-10-01T07:54:55.279Z,8.64
2018-10-01T07:55:55.251Z,8.62
2018-10-01T07:56:56.488Z,8.77
2018-10-01T07:57:55.952Z,8.85
2018-10-01T07:58:55.525Z,8.89
2018-10-01T07:59:55.393Z,8.98
2018-10-01T08:00:55.955Z,9.05
2018-10-01T08:01:55.976Z,9.23
2018-10-01T08:02:55.952Z,9.35
2018-10-01T08:03:55.508Z,9.42
2018-10-01T08:04:54.981Z,9.42
2018-10-01T08:05:54.952Z,9.48
2018-10-01T08:06:54.921Z,9.64
2018-10-01T08:07:55.024Z,9.70
2018-10-01T08:08:54.868Z,9.75
2018-10-01T08:09:54.832Z,9.88
2018-10-01T08:10:54.802Z,10.08
2018-10-01T08:11:54.765Z,10.18
2018-10-01T08:12:54.779Z,10.29
2018-10-01T08:13:54.712Z,10.47
2018-10-01T08:14:54.684Z,10.54
2018-10-01T08:15:54.711Z,10.72
2018-10-01T08:16:54.638Z,10.76
2018-10-01T08:17:54.640Z,10.97
2018-10-01T08:18:54.564Z,10.92
2018-10-01T08:19:54.596Z,11.18
2018-10-01T08:20:54.501Z,11.26
2018-10-01T08:21:54.477Z,11.43
2018-10-01T08:22:54.492Z,11.46
2018-10-01T08:23:54.421Z,11.59
2018-10-01T08:24:54.386Z,11.60
2018-10-01T08:25:54.367Z,11.68
2018-10-01T08:26:54.375Z,11.63
2018-10-01T08:27:54.347Z,11.79
2018-10-01T08:28:54.279Z,11.79
2018-10-01T08:29:54.405Z,11.89
2018-10-01T08:30:54.220Z,11.91
2018-10-01T08:31:54.192Z,11.94
2018-10-01T08:32:54.195Z,12.05
2018-10-01T08:33:54.140Z,12.13
2018-10-01T08:34:55.462Z,12.03
2018-10-01T08:35:54.079Z,12.08
2018-10-01T08:36:54.053Z,12.07
2018-10-01T08:37:54.029Z,12.13
2018-10-01T08:38:53.997Z,12.19
2018-10-01T08:39:54.021Z,12.18
2018-10-01T08:40:53.943Z,12.20
2018-10-01T08:41:53.914Z,12.26
2018-10-01T08:42:53.943Z,12.31
2018-10-01T08:43:53.860Z,12.36
2018-10-01T08:44:53.867Z,12.38
2018-10-01T08:45:53.846Z,12.38
2018-10-01T08:46:53.773Z,12.34
2018-10-01T08:47:53.747Z,12.40
2018-10-01T08:48:53.717Z,12.43
2018-10-01T08:49:53.707Z,12.43
2018-10-01T08:50:53.707Z,12.48
2018-10-01T08:51:53.705Z,12.44
2018-10-01T08:52:53.605Z,12.45
2018-10-01T08:53:53.590Z,12.52
2018-10-01T08:54:53.557Z,12.53
2018-10-01T08:55:53.522Z,12.53
2018-10-01T08:56:53.555Z,12.52
2018-10-01T08:57:53.465Z,12.59
2018-10-01T08:58:53.968Z,12.61
2018-10-01T08:59:53.411Z,12.70
2018-10-01T09:00:53.387Z,12.70
2018-10-01T09:01:53.409Z,12.73
2018-10-01T09:02:53.327Z,12.65
2018-10-01T09:03:53.300Z,12.69
2018-10-01T09:04:53.270Z,12.63
2018-10-01T09:05:53.247Z,12.66
2018-10-01T09:06:53.343Z,12.62
2018-10-01T09:07:53.233Z,12.55
2018-10-01T09:08:53.160Z,12.53
2018-10-01T09:09:53.176Z,12.53
2018-10-01T09:10:53.102Z,12.53
2018-10-01T09:11:53.076Z,12.52
2018-10-01T09:12:53.061Z,12.51
2018-10-01T09:13:53.063Z,12.55
2018-10-01T09:14:53.088Z,12.53
2018-10-01T09:15:52.964Z,12.59
2018-10-01T09:16:52.934Z,12.62
2018-10-01T09:17:52.902Z,12.66
2018-10-01T09:18:52.891Z,12.70
2018-10-01T09:19:52.889Z,12.73
2018-10-01T09:20:52.853Z,12.74
2018-10-01T09:21:52.794Z,12.81
2018-10-01T09:22:52.811Z,12.94
2018-10-01T09:23:52.735Z,12.89
2018-10-01T09:24:52.708Z,12.89
2018-10-01T09:25:52.680Z,13.02
2018-10-01T09:26:52.716Z,12.96
2018-10-01T09:27:52.624Z,13.09
2018-10-01T09:28:52.603Z,13.13
2018-10-01T09:29:52.579Z,13.20
2018-10-01T09:30:52.567Z,13.29
2018-10-01T09:31:52.550Z,13.45
2018-10-01T09:32:52.486Z,13.40
2018-10-01T09:33:52.459Z,13.51
2018-10-01T09:34:52.505Z,13.68
2018-10-01T09:35:52.401Z,13.81
2018-10-01T09:36:52.424Z,13.91
2018-10-01T09:37:52.363Z,13.91
2018-10-01T09:38:52.323Z,13.86
2018-10-01T09:39:52.309Z,13.91
2018-10-01T09:40:52.308Z,14.03
2018-10-01T09:41:52.240Z,14.08
2018-10-01T09:42:52.258Z,14.12
2018-10-01T09:43:52.185Z,14.13
2018-10-01T09:44:52.157Z,14.08
2018-10-01T09:45:52.134Z,14.08
2018-10-01T09:46:52.105Z,14.12
2018-10-01T09:47:52.131Z,13.97
2018-10-01T09:48:52.051Z,14.03
2018-10-01T09:49:52.163Z,14.01
2018-10-01T09:50:52.040Z,14.06
2018-10-01T09:51:51.978Z,14.03
2018-10-01T09:52:51.981Z,14.15
2018-10-01T09:53:52.058Z,14.15
2018-10-01T09:54:51.888Z,14.26
2018-10-01T09:55:51.869Z,14.34
2018-10-01T09:56:51.880Z,14.45
2018-10-01T09:57:51.852Z,14.59
2018-10-01T09:58:51.783Z,14.61
2018-10-01T09:59:51.761Z,14.67
2018-10-01T10:00:52.479Z,14.85
2018-10-01T10:01:51.775Z,14.93
2018-10-01T10:02:52.505Z,14.98
2018-10-01T10:03:51.661Z,15.20
2018-10-01T10:04:51.739Z,15.37
2018-10-01T10:05:51.605Z,15.44
2018-10-01T10:06:51.569Z,15.49
2018-10-01T10:07:51.546Z,15.53
2018-10-01T10:08:51.516Z,15.63
2018-10-01T10:09:51.564Z,15.65
2018-10-01T10:10:51.465Z,15.73
2018-10-01T10:11:51.436Z,15.74
2018-10-01T10:12:51.422Z,15.63
2018-10-01T10:13:51.385Z,15.68
2018-10-01T10:14:51.401Z,15.45
2018-10-01T10:15:51.336Z,15.35
2018-10-01T10:16:51.450Z,15.41
2018-10-01T10:17:51.336Z,15.44
2018-10-01T10:18:51.255Z,15.34
2018-10-01T10:19:51.535Z,15.47
2018-10-01T10:20:51.208Z,15.56
2018-10-01T10:21:51.180Z,15.65
2018-10-01T10:22:51.151Z,15.63
2018-10-01T10:23:51.133Z,15.71
2018-10-01T10:24:51.144Z,15.75
2018-10-01T10:25:51.074Z,15.84
2018-10-01T10:26:51.069Z,15.77
2018-10-01T10:27:51.023Z,15.73
2018-10-01T10:28:50.997Z,15.80
2018-10-01T10:29:51.059Z,15.84
2018-10-01T10:30:50.992Z,15.77
2018-10-01T10:31:50.919Z,15.75
2018-10-01T10:32:50.897Z,15.78
2018-10-01T10:33:50.869Z,15.77
2018-10-01T10:34:50.841Z,15.78
2018-10-01T10:35:50.859Z,15.74
2018-10-01T10:36:50.792Z,15.70
2018-10-01T10:37:50.772Z,15.59
2018-10-01T10:38:50.741Z,15.51
2018-10-01T10:39:50.769Z,15.62
2018-10-01T10:40:50.733Z,15.58
2018-10-01T10:41:50.718Z,15.49
2018-10-01T10:42:50.636Z,15.45
2018-10-01T10:43:50.612Z,15.38
2018-10-01T10:44:50.587Z,15.23
2018-10-01T10:45:50.613Z,15.23
2018-10-01T10:46:50.531Z,15.19
2018-10-01T10:47:50.504Z,15.18
2018-10-01T10:48:50.478Z,15.08
2018-10-01T10:49:50.456Z,14.98
2018-10-01T10:50:50.474Z,14.82
2018-10-01T10:51:50.448Z,14.90
2018-10-01T10:52:50.375Z,14.74
2018-10-01T10:53:50.353Z,14.71
2018-10-01T10:54:50.322Z,14.77
2018-10-01T10:55:50.295Z,14.71
2018-10-01T10:56:50.377Z,14.67
2018-10-01T10:57:50.243Z,14.74
2018-10-01T10:58:50.218Z,14.67
2018-10-01T10:59:50.197Z,14.71
2018-10-01T11:00:50.167Z,14.77
2018-10-01T11:01:50.198Z,14.89
2018-10-01T11:02:50.156Z,14.74
2018-10-01T11:03:50.085Z,14.87
2018-10-01T11:04:50.060Z,15.00
2018-10-01T11:05:50.031Z,15.00
2018-10-01T11:06:50.003Z,15.02
2018-10-01T11:07:50.022Z,14.98
2018-10-01T11:08:49.951Z,15.07
2018-10-01T11:09:49.930Z,15.18
2018-10-01T11:10:49.900Z,15.25
2018-10-01T11:11:49.925Z,15.30
2018-10-01T11:12:49.892Z,15.23
2018-10-01T11:13:49.854Z,15.26
2018-10-01T11:14:49.899Z,15.15
2018-10-01T11:15:49.766Z,15.16
2018-10-01T11:16:49.796Z,15.16
2018-10-01T11:17:49.793Z,15.30
2018-10-01T11:18:49.842Z,15.19
2018-10-01T11:19:49.778Z,15.19
2018-10-01T11:20:49.704Z,15.25
2018-10-01T11:21:49.681Z,15.40
2018-10-01T11:22:49.645Z,15.34
2018-10-01T11:23:49.567Z,15.33
2018-10-01T11:24:49.529Z,15.23
2018-10-01T11:25:49.507Z,15.31
2018-10-01T11:26:49.543Z,15.33
2018-10-01T11:27:49.580Z,15.35
2018-10-01T11:28:49.566Z,15.37
2018-10-01T11:29:49.400Z,15.49
2018-10-01T11:30:49.375Z,15.53
2018-10-01T11:31:49.439Z,15.47
2018-10-01T11:32:49.324Z,15.52
2018-10-01T11:33:49.347Z,15.63
2018-10-01T11:34:49.403Z,15.81
2018-10-01T11:35:49.246Z,15.84
2018-10-01T11:36:49.222Z,15.99
2018-10-01T11:37:49.238Z,15.96
2018-10-01T11:38:49.215Z,15.99
2018-10-01T11:39:49.191Z,16.02
2018-10-01T11:40:49.122Z,15.98
2018-10-01T11:41:49.091Z,15.99
2018-10-01T11:42:49.078Z,15.93
2018-10-01T11:43:49.085Z,15.86
2018-10-01T11:44:49.026Z,15.95
2018-10-01T11:45:49.021Z,15.96
2018-10-01T11:46:48.965Z,15.81
2018-10-01T11:47:48.942Z,15.83
2018-10-01T11:48:48.957Z,15.81
2018-10-01T11:49:48.894Z,15.70
2018-10-01T11:50:48.867Z,15.55
2018-10-01T11:51:48.842Z,15.41
2018-10-01T11:52:48.820Z,15.34
2018-10-01T11:53:48.838Z,15.37
2018-10-01T11:54:48.761Z,15.26
2018-10-01T11:55:48.752Z,15.33
2018-10-01T11:56:48.718Z,15.30
2018-10-01T11:57:48.804Z,15.35
2018-10-01T11:58:48.703Z,15.34
2018-10-01T11:59:48.635Z,15.47
2018-10-01T12:00:48.655Z,15.44
2018-10-01T12:01:48.585Z,15.34
2018-10-01T12:02:48.581Z,15.44
2018-10-01T12:03:48.576Z,15.40
2018-10-01T12:04:48.551Z,15.31
2018-10-01T12:05:48.479Z,15.16
2018-10-01T12:06:48.496Z,14.98
2018-10-01T12:07:48.426Z,14.97
2018-10-01T12:08:48.463Z,14.93
2018-10-01T12:09:48.523Z,14.85
2018-10-01T12:10:48.349Z,14.71
2018-10-01T12:11:48.328Z,14.70
2018-10-01T12:12:48.318Z,14.57
2018-10-01T12:13:48.318Z,14.64
2018-10-01T12:14:48.244Z,14.75
2018-10-01T12:15:48.379Z,14.69
2018-10-01T12:16:48.198Z,14.87
2018-10-01T12:17:48.168Z,14.87
2018-10-01T12:18:48.141Z,15.01
2018-10-01T12:19:48.167Z,15.02
2018-10-01T12:20:48.088Z,15.01
2018-10-01T12:21:48.233Z,15.15
2018-10-01T12:22:48.035Z,15.30
2018-10-01T12:23:48.010Z,15.38
2018-10-01T12:24:48.029Z,15.41
2018-10-01T12:25:47.958Z,15.45
2018-10-01T12:26:48.024Z,15.53
2018-10-01T12:27:47.911Z,15.43
2018-10-01T12:28:47.885Z,15.44
2018-10-01T12:29:47.902Z,15.47
2018-10-01T12:30:47.871Z,15.49
2018-10-01T12:31:47.802Z,15.58
2018-10-01T12:32:47.781Z,15.63
2018-10-01T12:33:47.896Z,15.60
2018-10-01T12:34:47.774Z,15.59
2018-10-01T12:35:47.700Z,15.45
2018-10-01T12:36:47.833Z,15.47
2018-10-01T12:37:47.653Z,15.56
2018-10-01T12:38:47.685Z,15.73
2018-10-01T12:39:47.611Z,15.86
2018-10-01T12:40:47.572Z,15.74
2018-10-01T12:41:47.552Z,15.70
2018-10-01T12:42:47.625Z,15.71
2018-10-01T12:43:47.621Z,15.70
2018-10-01T12:44:47.474Z,15.68
2018-10-01T12:45:47.455Z,15.68
2018-10-01T12:46:47.470Z,15.67
2018-10-01T12:47:47.400Z,15.73
2018-10-01T12:48:47.419Z,15.67
2018-10-01T12:49:47.342Z,15.59
2018-10-01T12:50:47.317Z,15.49
2018-10-01T12:51:47.385Z,15.34
2018-10-01T12:52:47.348Z,15.31
2018-10-01T12:53:47.287Z,15.07
2018-10-01T12:54:47.216Z,15.02
2018-10-01T12:55:47.230Z,14.97
2018-10-01T12:56:47.172Z,15.01
2018-10-01T12:57:47.351Z,14.98
2018-10-01T12:58:47.108Z,14.98
2018-10-01T12:59:47.132Z,15.01
2018-10-01T13:00:47.058Z,15.00
2018-10-01T13:01:47.037Z,14.95
2018-10-01T13:02:47.006Z,14.93
2018-10-01T13:03:46.976Z,14.89
2018-10-01T13:04:46.996Z,14.93
2018-10-01T13:05:47.520Z,14.82
2018-10-01T13:06:46.916Z,14.66
2018-10-01T13:07:46.880Z,14.66